Springfield, IL (62756)

4:14 PM CST on December 27, 2014 (GMT -0600)
Southwest Springfield | Change Station
CLOSE
Current Station
Personal Weather Station
Location: Springfield, IL
Elevation: 607 ft
Nearby Weather Stations

Elev 607 ft 39.76 °N, 89.68 °W | Updated 1 second ago

Rain
Rain
36.1 °F
Feels Like 36 °F
N
2.5
Wind Variable Wind from WSW
Gusts 2.5 mph

Today
High -- | Low -- °F
--% Chance of Precip.
Yesterday
High -- | Low -- °F
Precip. -- in
7:18 AM 4:40 PM
Waxing Crescent, 40% visible
Pressure 30.17 in
Visibility 10.0 miles
Clouds Mostly Cloudy 1100 ft
Overcast 3700 ft
Windchill 36 °F
Dew Point 35 °F
Humidity 97%
Rainfall 0.04 in
Snow Depth Not available.
UV 0 out of 12
Pollen .10 out of 12
Air Quality Not available.
Flu Activity Not available.
METAR KSPI 272152Z 28010KT 10SM -RA BKN011 OVC037 03/01 A3015 RMK AO2 SLP214 P0001 T00280011

More Conditions Fewer Conditions

Pressure 30.17 in
Visibility 10.0 miles
Clouds Mostly Cloudy 1100 ft
Overcast 3700 ft
Windchill 36 °F
Dew Point 35 °F
Humidity 97%
Rainfall 0.04 in
Snow Depth Not available.
UV 0 out of 12
Pollen .10 out of 12
Air Quality Not available.
Flu Activity Not available.
METAR KSPI 272152Z 28010KT 10SM -RA BKN011 OVC037 03/01 A3015 RMK AO2 SLP214 P0001 T00280011

More Conditions Fewer Conditions

10-Day Weather Forecast

Almanac

Astronomy

Dec. 27, 2014 Rise Set
Actual Time
Civil Twilight
Nautical Twilight
Astronomical Twilight
Moon
Length of Visible Light
Length of Day
Tomorrow will be .
, % of the Moon is Illuminated

Today's Extremes

State Highs State Lows

Community

WunderPhotos

Upload Photos

1,781,090 photos uploaded!

WunderBlogs® & News

Nearby

Air Quality

  Air Quality AQ Index Pollutant
Not available.

Snow Depth

Station Depth Elevation

Earthquake Activity

City Distance Mag. Time & Date
Minimum magnitude displayed is 2.5.

Coastal Water Temperatures

Place Temperature

Nearby Weather Stations